Time;durP1;ratioP1;P1;durP2;ratioP2;P2;SDS_P1;SDS_P2;PMS_P1;PMS_P2;Temp;Humidity;BMP_temperature;BMP_pressure;BME280_temperature;BME280_humidity;BME280_pressure;Samples;Min_cycle;Max_cycle;Signal;HPM_P1;HPM_P2
2023/10/05 00:02:10;;;;;;;10.27;1.92;;;;;;;;;;4993083;28;92437;-66
2023/10/05 00:04:41;;;;;;;9.40;2.05;;;;;;;;;;4997633;28;93595;-66
2023/10/05 00:07:17;;;;;;;10.98;2.08;;;;;;;;;;4993353;28;93397;-65
2023/10/05 00:09:44;;;;;;;9.85;2.50;;;;;;;;;;4993477;28;92605;-66
2023/10/05 00:12:19;;;;;;;11.27;2.10;;;;;;;;;;4992052;28;94800;-66
2023/10/05 00:14:48;;;;;;;19.00;3.03;;;;;;;;;;4993446;28;93379;-66
2023/10/05 00:17:18;;;;;;;16.63;2.08;;;;;;;;;;4993563;28;92707;-65
2023/10/05 00:19:46;;;;;;;8.48;1.98;;;;;;;;;;4996304;28;93277;-65
2023/10/05 00:22:12;;;;;;;13.30;2.28;;;;;;;;;;4992936;28;92623;-65
2023/10/05 00:24:40;;;;;;;12.38;2.15;;;;;;;;;;4992535;28;93169;-65
2023/10/05 00:27:10;;;;;;;20.55;3.47;;;;;;;;;;4993351;28;94407;-66
2023/10/05 00:29:45;;;;;;;12.80;2.60;;;;;;;;;;4994013;28;91786;-66
2023/10/05 00:32:15;;;;;;;11.10;2.30;;;;;;;;;;4992994;28;92548;-66
2023/10/05 00:34:43;;;;;;;11.32;2.78;;;;;;;;;;4993012;28;94376;-65
2023/10/05 00:37:10;;;;;;;7.18;2.20;;;;;;;;;;4991572;28;94836;-65
2023/10/05 00:39:37;;;;;;;15.35;2.13;;;;;;;;;;4992871;28;95674;-65
2023/10/05 00:44:30;;;;;;;11.10;2.30;;;;;;;;;;4993263;28;93126;-66
2023/10/05 00:47:00;;;;;;;14.73;3.15;;;;;;;;;;4993150;28;93430;-63
2023/10/05 00:49:29;;;;;;;13.55;2.28;;;;;;;;;;4993182;28;92311;-63
2023/10/05 00:52:11;;;;;;;8.20;2.15;;;;;;;;;;4989576;28;93325;-63
2023/10/05 00:54:40;;;;;;;12.00;2.30;;;;;;;;;;4992865;28;93063;-63
2023/10/05 00:57:09;;;;;;;6.63;1.77;;;;;;;;;;4993149;28;92517;-63
2023/10/05 00:59:36;;;;;;;14.75;3.13;;;;;;;;;;4993478;28;93037;-63
2023/10/05 01:07:18;;;;;;;11.48;2.50;;;;;;;;;;4991197;28;92944;-63
2023/10/05 01:14:53;;;;;;;12.48;2.10;;;;;;;;;;4991929;28;94846;-63
2023/10/05 01:17:25;;;;;;;11.07;2.00;;;;;;;;;;4992331;28;92625;-63
2023/10/05 01:19:59;;;;;;;11.95;2.30;;;;;;;;;;4992995;28;93100;-64
2023/10/05 01:22:47;;;;;;;15.15;2.25;;;;;;;;;;4993346;28;94510;-64
2023/10/05 01:25:16;;;;;;;16.30;3.15;;;;;;;;;;4991010;28;92507;-63
2023/10/05 01:27:43;;;;;;;;;;;;;;;;;;4994275;28;94972;-63
2023/10/05 01:30:12;;;;;;;13.40;2.47;;;;;;;;;;4992931;28;116690;-63
2023/10/05 01:32:42;;;;;;;13.05;2.10;;;;;;;;;;4992544;28;94611;-63
2023/10/05 01:35:09;;;;;;;18.25;2.70;;;;;;;;;;4992359;28;93383;-63
2023/10/05 01:37:37;;;;;;;9.43;1.90;;;;;;;;;;4992924;28;92547;-63
2023/10/05 01:42:43;;;;;;;13.30;2.53;;;;;;;;;;4991971;28;93993;-62
2023/10/05 01:45:15;;;;;;;16.65;2.20;;;;;;;;;;4992776;28;91783;-63
2023/10/05 01:47:43;;;;;;;15.23;3.00;;;;;;;;;;4991921;28;92662;-63
2023/10/05 01:50:19;;;;;;;13.95;2.13;;;;;;;;;;4994746;28;93549;-63
2023/10/05 01:52:49;;;;;;;10.93;2.20;;;;;;;;;;4990188;28;94795;-64
2023/10/05 01:55:18;;;;;;;15.13;2.63;;;;;;;;;;4992230;28;93421;-64
2023/10/05 01:57:44;;;;;;;10.48;2.40;;;;;;;;;;4992750;28;92660;-63
2023/10/05 02:00:14;;;;;;;14.93;2.60;;;;;;;;;;4992267;28;93981;-63
2023/10/05 02:02:46;;;;;;;10.77;2.45;;;;;;;;;;4991721;28;93422;-63
2023/10/05 02:05:20;;;;;;;14.82;2.75;;;;;;;;;;4992877;28;92416;-63
2023/10/05 02:07:49;;;;;;;18.05;2.67;;;;;;;;;;4991870;28;94168;-63
2023/10/05 02:10:19;;;;;;;14.32;2.20;;;;;;;;;;4992232;28;92462;-62
2023/10/05 02:12:49;;;;;;;9.30;2.20;;;;;;;;;;4994633;28;92584;-63
2023/10/05 02:15:16;;;;;;;10.02;2.20;;;;;;;;;;4991334;28;93469;-63
2023/10/05 02:17:51;;;;;;;11.27;2.33;;;;;;;;;;4992411;28;94988;-63
2023/10/05 02:23:01;;;;;;;11.65;2.20;;;;;;;;;;4991799;28;93307;-63
2023/10/05 02:25:34;;;;;;;17.77;2.58;;;;;;;;;;4994857;28;92543;-63
2023/10/05 02:28:02;;;;;;;13.52;2.05;;;;;;;;;;4991992;28;94209;-63
2023/10/05 02:30:31;;;;;;;16.20;2.45;;;;;;;;;;4993133;28;93558;-63
2023/10/05 02:32:58;;;;;;;10.45;1.92;;;;;;;;;;4998245;28;92879;-63
2023/10/05 02:35:30;;;;;;;15.73;2.72;;;;;;;;;;4996284;28;92683;-63
2023/10/05 02:37:59;;;;;;;15.95;2.60;;;;;;;;;;4995456;28;92804;-63
2023/10/05 02:40:35;;;;;;;16.10;2.30;;;;;;;;;;4995220;28;93213;-63
2023/10/05 02:43:09;;;;;;;13.45;2.72;;;;;;;;;;4989588;28;96785;-63
2023/10/05 02:45:40;;;;;;;11.18;2.53;;;;;;;;;;4995482;28;92856;-63
2023/10/05 02:48:06;;;;;;;11.43;2.08;;;;;;;;;;4995530;28;94291;-64
2023/10/05 02:50:37;;;;;;;8.30;2.00;;;;;;;;;;4994935;28;93415;-62
2023/10/05 02:53:06;;;;;;;9.48;2.88;;;;;;;;;;4995389;28;92482;-63
2023/10/05 02:55:36;;;;;;;13.73;2.70;;;;;;;;;;4994312;28;93107;-63
2023/10/05 02:58:04;;;;;;;9.30;2.00;;;;;;;;;;4991492;28;92445;-63
2023/10/05 03:00:33;;;;;;;12.52;2.38;;;;;;;;;;4999085;28;94437;-63
2023/10/05 03:03:03;;;;;;;8.50;1.70;;;;;;;;;;4994780;28;93391;-62
2023/10/05 03:05:32;;;;;;;16.55;2.40;;;;;;;;;;4995072;28;92615;-63
2023/10/05 03:07:59;;;;;;;9.00;2.10;;;;;;;;;;4993713;28;94898;-63
2023/10/05 03:10:26;;;;;;;11.60;2.47;;;;;;;;;;4993763;28;92542;-63
2023/10/05 03:12:53;;;;;;;7.20;1.58;;;;;;;;;;4995045;28;92631;-63
2023/10/05 03:15:27;;;;;;;12.65;2.38;;;;;;;;;;4993078;28;94348;-63
2023/10/05 03:17:56;;;;;;;15.25;2.50;;;;;;;;;;4997657;28;93649;-63
2023/10/05 03:20:24;;;;;;;9.57;2.07;;;;;;;;;;4994439;28;93865;-63
2023/10/05 03:22:54;;;;;;;11.95;2.63;;;;;;;;;;4993767;28;93475;-63
2023/10/05 03:25:21;;;;;;;11.77;2.20;;;;;;;;;;4994606;28;92117;-63
2023/10/05 03:27:48;;;;;;;9.20;2.38;;;;;;;;;;4993013;28;92511;-63
2023/10/05 03:30:15;;;;;;;9.43;2.08;;;;;;;;;;4993620;28;93425;-62
2023/10/05 03:32:41;;;;;;;9.85;2.53;;;;;;;;;;4992345;28;94846;-63
2023/10/05 03:35:11;;;;;;;9.55;2.47;;;;;;;;;;4994204;28;96243;-64
2023/10/05 03:37:41;;;;;;;14.00;1.93;;;;;;;;;;4990729;28;93370;-63
2023/10/05 03:40:22;;;;;;;11.85;2.45;;;;;;;;;;4993561;28;92628;-63
2023/10/05 03:42:56;;;;;;;10.85;2.40;;;;;;;;;;4992090;28;94425;-63
2023/10/05 03:45:23;;;;;;;18.88;2.80;;;;;;;;;;4994700;28;92813;-63
2023/10/05 03:47:50;;;;;;;11.05;2.50;;;;;;;;;;4994664;28;94258;-63
2023/10/05 03:50:16;;;;;;;13.38;2.47;;;;;;;;;;4994555;28;92543;-63
2023/10/05 03:52:47;;;;;;;12.10;2.75;;;;;;;;;;4994205;28;92644;-63
2023/10/05 03:55:18;;;;;;;11.87;2.57;;;;;;;;;;4993466;28;93344;-63
2023/10/05 03:57:46;;;;;;;21.10;2.95;;;;;;;;;;4992436;28;96842;-63
2023/10/05 04:00:34;;;;;;;18.05;2.70;;;;;;;;;;4993389;28;92430;-63
2023/10/05 04:03:02;;;;;;;15.55;2.47;;;;;;;;;;5000702;28;93328;-63
2023/10/05 04:05:30;;;;;;;20.58;3.28;;;;;;;;;;4993246;28;92812;-63
2023/10/05 04:08:10;;;;;;;16.90;2.75;;;;;;;;;;4993583;28;93083;-63
2023/10/05 04:10:49;;;;;;;12.80;2.70;;;;;;;;;;4993253;28;93394;-63
2023/10/05 04:13:21;;;;;;;8.38;2.40;;;;;;;;;;4991467;28;92641;-63
2023/10/05 04:15:49;;;;;;;19.38;3.00;;;;;;;;;;4993892;28;93460;-63
2023/10/05 04:18:20;;;;;;;19.27;3.37;;;;;;;;;;4993616;28;93651;-65
2023/10/05 04:20:47;;;;;;;15.82;3.05;;;;;;;;;;4993798;28;92521;-65
2023/10/05 04:23:25;;;;;;;23.83;3.55;;;;;;;;;;4992159;28;95067;-65
2023/10/05 04:25:54;;;;;;;15.05;2.60;;;;;;;;;;4996851;28;93392;-65
2023/10/05 04:28:40;;;;;;;13.73;3.30;;;;;;;;;;4993916;28;94826;-65
2023/10/05 04:31:13;;;;;;;15.77;3.20;;;;;;;;;;4990098;28;93432;-65
2023/10/05 04:33:43;;;;;;;18.38;3.88;;;;;;;;;;4990258;28;92485;-65
2023/10/05 04:36:09;;;;;;;13.93;2.83;;;;;;;;;;4989745;28;93051;-66
2023/10/05 04:38:36;;;;;;;12.23;2.88;;;;;;;;;;4992832;28;93396;-66
2023/10/05 04:41:02;;;;;;;12.27;3.13;;;;;;;;;;4992390;28;92072;-65
2023/10/05 04:43:29;;;;;;;16.80;3.20;;;;;;;;;;4992854;28;92564;-65
2023/10/05 04:45:56;;;;;;;17.95;3.22;;;;;;;;;;4995969;28;93976;-65
2023/10/05 04:48:23;;;;;;;18.83;3.92;;;;;;;;;;4991629;28;95120;-65
2023/10/05 04:50:51;;;;;;;9.75;2.75;;;;;;;;;;4992374;28;93488;-65
2023/10/05 04:53:20;;;;;;;14.80;3.22;;;;;;;;;;4993402;28;92672;-65
2023/10/05 04:55:46;;;;;;;14.93;3.53;;;;;;;;;;4992273;28;92601;-65
2023/10/05 04:58:24;;;;;;;22.67;3.25;;;;;;;;;;4993134;28;93921;-65
2023/10/05 05:01:15;;;;;;;15.05;3.25;;;;;;;;;;4992701;28;92861;-65
2023/10/05 05:03:55;;;;;;;12.85;3.13;;;;;;;;;;4989445;28;93154;-66
2023/10/05 05:06:25;;;;;;;12.55;3.70;;;;;;;;;;4991398;28;92664;-65
2023/10/05 05:08:53;;;;;;;26.23;3.58;;;;;;;;;;4996127;28;92504;-65
2023/10/05 05:11:19;;;;;;;17.70;3.08;;;;;;;;;;4992917;28;93365;-65
2023/10/05 05:13:46;;;;;;;14.05;2.78;;;;;;;;;;4990803;28;94759;-65
2023/10/05 05:16:14;;;;;;;19.63;3.38;;;;;;;;;;4992277;28;95461;-65
2023/10/05 05:18:42;;;;;;;19.15;3.28;;;;;;;;;;4989114;28;93428;-65
2023/10/05 05:21:08;;;;;;;23.20;4.85;;;;;;;;;;4992326;28;92627;-65
2023/10/05 05:23:35;;;;;;;27.10;4.53;;;;;;;;;;4993459;28;93121;-65
2023/10/05 05:26:03;;;;;;;31.75;5.15;;;;;;;;;;4992730;28;94438;-65
2023/10/05 05:28:30;;;;;;;20.55;4.30;;;;;;;;;;4992825;28;92394;-63
2023/10/05 05:31:04;;;;;;;16.35;3.80;;;;;;;;;;4995671;28;93161;-63
2023/10/05 05:33:31;;;;;;;20.00;5.50;;;;;;;;;;4992531;28;92846;-63
2023/10/05 05:35:58;;;;;;;18.23;3.83;;;;;;;;;;4992144;28;92414;-63
2023/10/05 05:38:24;;;;;;;20.25;3.30;;;;;;;;;;4989963;28;94800;-63
2023/10/05 05:40:53;;;;;;;12.60;3.58;;;;;;;;;;4992594;28;92575;-63
2023/10/05 05:43:19;;;;;;;12.38;3.33;;;;;;;;;;4991761;28;93050;-63
2023/10/05 05:45:46;;;;;;;9.88;3.50;;;;;;;;;;4992693;28;93754;-63
2023/10/05 05:48:14;;;;;;;13.13;3.17;;;;;;;;;;4992973;28;92537;-63
2023/10/05 05:50:44;;;;;;;10.70;4.10;;;;;;;;;;4988772;28;93253;-63
2023/10/05 05:53:14;;;;;;;20.55;3.95;;;;;;;;;;4994386;28;93945;-63
2023/10/05 05:55:43;;;;;;;11.68;3.42;;;;;;;;;;4992057;28;94529;-63
2023/10/05 05:58:16;;;;;;;14.20;3.83;;;;;;;;;;4995291;28;95188;-63
2023/10/05 06:00:46;;;;;;;14.05;3.00;;;;;;;;;;4991683;28;92495;-63
2023/10/05 06:03:13;;;;;;;15.48;3.30;;;;;;;;;;4990472;28;95243;-63
2023/10/05 06:05:39;;;;;;;16.83;3.60;;;;;;;;;;4995309;28;93238;-63
2023/10/05 06:08:09;;;;;;;15.32;3.20;;;;;;;;;;4995054;28;95720;-63
2023/10/05 06:10:35;;;;;;;17.80;3.92;;;;;;;;;;4994812;28;93367;-63
2023/10/05 06:13:05;;;;;;;12.82;3.83;;;;;;;;;;4995373;28;93519;-63
2023/10/05 06:15:31;;;;;;;14.15;3.70;;;;;;;;;;4996817;28;95546;-63
2023/10/05 06:18:00;;;;;;;14.30;4.35;;;;;;;;;;4995495;28;93430;-63
2023/10/05 06:20:27;;;;;;;16.13;3.97;;;;;;;;;;4995264;28;91722;-63
2023/10/05 06:22:53;;;;;;;14.25;3.60;;;;;;;;;;4994852;28;92526;-63
2023/10/05 06:25:19;;;;;;;16.98;3.50;;;;;;;;;;4994877;28;93397;-64
2023/10/05 06:27:48;;;;;;;9.80;3.10;;;;;;;;;;4993986;28;95144;-63
2023/10/05 06:30:15;;;;;;;24.45;4.45;;;;;;;;;;4995004;28;95523;-63
2023/10/05 06:32:44;;;;;;;25.55;4.03;;;;;;;;;;4994300;28;92400;-63
2023/10/05 06:35:13;;;;;;;13.48;3.17;;;;;;;;;;4994405;28;92606;-63
2023/10/05 06:37:40;;;;;;;12.13;3.30;;;;;;;;;;4997633;28;93108;-63
2023/10/05 06:40:12;;;;;;;12.38;3.40;;;;;;;;;;4994643;28;92399;-63
2023/10/05 06:42:41;;;;;;;12.35;3.60;;;;;;;;;;4994316;28;93573;-63
2023/10/05 06:45:08;;;;;;;19.92;4.00;;;;;;;;;;4994418;28;92805;-64
2023/10/05 06:47:38;;;;;;;17.52;3.95;;;;;;;;;;4994985;28;92582;-63
2023/10/05 06:50:08;;;;;;;17.52;4.07;;;;;;;;;;4994785;28;93196;-63
2023/10/05 06:52:39;;;;;;;20.20;4.43;;;;;;;;;;4993047;28;96082;-63
2023/10/05 06:55:07;;;;;;;21.15;4.63;;;;;;;;;;4994642;28;92439;-63
2023/10/05 06:57:35;;;;;;;13.65;4.05;;;;;;;;;;4997304;28;94963;-63
2023/10/05 07:00:12;;;;;;;18.30;4.03;;;;;;;;;;4994775;28;92376;-62
2023/10/05 07:02:39;;;;;;;14.95;3.83;;;;;;;;;;4993281;28;93747;-63
2023/10/05 07:05:07;;;;;;;16.83;3.95;;;;;;;;;;4992777;28;93695;-63
2023/10/05 07:07:35;;;;;;;18.95;4.32;;;;;;;;;;4994146;28;92446;-63
2023/10/05 07:10:03;;;;;;;13.75;4.03;;;;;;;;;;4995168;28;94073;-63
2023/10/05 07:12:31;;;;;;;15.35;3.88;;;;;;;;;;4993263;28;93380;-63
2023/10/05 07:14:58;;;;;;;17.35;4.35;;;;;;;;;;4993851;28;92532;-63
2023/10/05 07:17:26;;;;;;;13.52;4.05;;;;;;;;;;4992318;28;95288;-63
2023/10/05 07:19:53;;;;;;;11.85;3.63;;;;;;;;;;4996916;28;93418;-63
2023/10/05 07:22:23;;;;;;;19.35;3.90;;;;;;;;;;4994552;28;92706;-63
2023/10/05 07:24:49;;;;;;;12.20;3.92;;;;;;;;;;4993808;28;93368;-63
2023/10/05 07:27:16;;;;;;;13.20;3.35;;;;;;;;;;4994407;28;92649;-63
2023/10/05 07:29:46;;;;;;;15.43;4.07;;;;;;;;;;4994456;28;94177;-63
2023/10/05 07:32:12;;;;;;;14.73;3.72;;;;;;;;;;4994112;28;93408;-63
2023/10/05 07:34:40;;;;;;;13.52;3.88;;;;;;;;;;4998192;28;91978;-63
2023/10/05 07:37:10;;;;;;;13.38;3.40;;;;;;;;;;4994219;28;92536;-63
2023/10/05 07:39:38;;;;;;;16.53;3.80;;;;;;;;;;4994114;28;92430;-63
2023/10/05 07:42:04;;;;;;;13.63;3.03;;;;;;;;;;4994991;28;94838;-63
2023/10/05 07:44:31;;;;;;;14.77;3.53;;;;;;;;;;4993203;28;93426;-63
2023/10/05 07:46:57;;;;;;;17.58;4.15;;;;;;;;;;4998762;28;92703;-63
2023/10/05 07:49:24;;;;;;;18.75;3.65;;;;;;;;;;4993974;28;93743;-65
2023/10/05 07:51:50;;;;;;;13.40;3.80;;;;;;;;;;4993422;28;93583;-65
2023/10/05 07:54:17;;;;;;;12.48;3.50;;;;;;;;;;4990337;28;92443;-66
2023/10/05 07:56:44;;;;;;;12.20;3.55;;;;;;;;;;4994097;28;93470;-65
2023/10/05 07:59:13;;;;;;;7.85;3.08;;;;;;;;;;4993618;28;93318;-65
2023/10/05 08:01:40;;;;;;;16.77;4.10;;;;;;;;;;4993687;28;92509;-65
2023/10/05 08:04:11;;;;;;;17.80;3.22;;;;;;;;;;4995968;28;93181;-65
2023/10/05 08:06:39;;;;;;;19.42;4.07;;;;;;;;;;4992308;28;94755;-65
2023/10/05 08:09:06;;;;;;;10.43;3.65;;;;;;;;;;4993262;28;96900;-65
2023/10/05 08:11:33;;;;;;;17.67;2.85;;;;;;;;;;4993423;28;96193;-65
2023/10/05 08:13:59;;;;;;;21.73;4.53;;;;;;;;;;4992869;28;92523;-65
2023/10/05 08:16:28;;;;;;;17.27;3.65;;;;;;;;;;4992742;28;93143;-65
2023/10/05 08:18:54;;;;;;;9.65;3.08;;;;;;;;;;4993298;28;92478;-65
2023/10/05 08:21:21;;;;;;;14.10;3.20;;;;;;;;;;4993671;28;92861;-65
2023/10/05 08:23:51;;;;;;;22.80;4.35;;;;;;;;;;4993328;28;93131;-65
2023/10/05 08:26:19;;;;;;;11.23;3.25;;;;;;;;;;4992826;28;93431;-65
2023/10/05 08:28:50;;;;;;;15.30;3.05;;;;;;;;;;4993148;28;93166;-65
2023/10/05 08:31:22;;;;;;;16.88;4.00;;;;;;;;;;4991659;28;96111;-65
2023/10/05 08:33:53;;;;;;;13.40;2.97;;;;;;;;;;4989405;28;92441;-66
2023/10/05 08:36:20;;;;;;;11.80;2.60;;;;;;;;;;4989986;28;94207;-65
2023/10/05 08:38:50;;;;;;;16.10;3.00;;;;;;;;;;4992624;28;93462;-65
2023/10/05 08:41:24;;;;;;;16.75;3.65;;;;;;;;;;4992609;28;92544;-65
2023/10/05 08:43:50;;;;;;;9.02;2.80;;;;;;;;;;4989330;28;93176;-65
2023/10/05 08:46:18;;;;;;;10.38;2.95;;;;;;;;;;4993182;28;94506;-65
2023/10/05 08:48:46;;;;;;;14.13;2.83;;;;;;;;;;4996579;28;91561;-65
2023/10/05 08:51:13;;;;;;;10.45;2.72;;;;;;;;;;4992445;28;92805;-65
2023/10/05 08:53:50;;;;;;;14.50;3.03;;;;;;;;;;4992325;28;92481;-65
2023/10/05 08:56:17;;;;;;;12.65;3.50;;;;;;;;;;4991393;28;95334;-65
2023/10/05 08:58:45;;;;;;;12.75;3.13;;;;;;;;;;4992069;28;93503;-65
2023/10/05 09:01:23;;;;;;;18.00;2.72;;;;;;;;;;4993217;28;92374;-65
2023/10/05 09:03:54;;;;;;;14.85;3.05;;;;;;;;;;4992610;28;93338;-65
2023/10/05 09:06:20;;;;;;;13.35;3.40;;;;;;;;;;4992795;28;94646;-65
2023/10/05 09:11:33;;;;;;;11.38;2.85;;;;;;;;;;4989287;28;93214;-65
2023/10/05 09:14:12;;;;;;;9.27;2.97;;;;;;;;;;4992338;28;91884;-65
2023/10/05 09:16:42;;;;;;;11.73;2.75;;;;;;;;;;4992853;28;92660;-65
2023/10/05 09:19:25;;;;;;;6.07;2.30;;;;;;;;;;4992281;28;93570;-65
2023/10/05 09:22:35;;;;;;;12.48;3.50;;;;;;;;;;4987232;28;94870;-65
2023/10/05 09:24:52;;;;;;;17.90;2.83;;;;;;;;;;4986652;28;95915;-65
2023/10/05 09:27:20;;;;;;;13.68;2.50;;;;;;;;;;4993793;28;93335;-65
2023/10/05 09:29:48;;;;;;;8.40;2.53;;;;;;;;;;4995495;28;92587;-65
2023/10/05 09:32:25;;;;;;;10.93;2.33;;;;;;;;;;4998702;28;93092;-65
2023/10/05 09:34:56;;;;;;;16.23;3.05;;;;;;;;;;4995228;28;92821;-65
2023/10/05 09:37:27;;;;;;;11.18;2.38;;;;;;;;;;4996281;28;93157;-65
2023/10/05 09:39:59;;;;;;;;;;;;;;;;;;4993253;28;92769;-65
2023/10/05 09:42:26;;;;;;;14.90;2.58;;;;;;;;;;4992672;28;118591;-65
2023/10/05 09:44:53;;;;;;;14.25;2.60;;;;;;;;;;4995058;28;93463;-65
2023/10/05 09:47:32;;;;;;;11.95;2.58;;;;;;;;;;4994811;28;94851;-65
2023/10/05 09:50:00;;;;;;;13.20;2.00;;;;;;;;;;4992605;28;93551;-65
2023/10/05 09:52:37;;;;;;;10.43;2.38;;;;;;;;;;4995457;28;93216;-65
2023/10/05 09:55:07;;;;;;;10.57;2.58;;;;;;;;;;4995839;28;93683;-65
2023/10/05 09:57:41;;;;;;;13.67;2.03;;;;;;;;;;4995873;28;93160;-65
2023/10/05 10:00:47;;;;;;;8.25;2.50;;;;;;;;;;4994694;28;93476;-65
2023/10/05 10:03:01;;;;;;;19.83;2.88;;;;;;;;;;4991894;28;92508;-65
2023/10/05 10:05:48;;;;;;;12.35;2.80;;;;;;;;;;4992518;28;93132;-66
2023/10/05 10:08:21;;;;;;;11.73;2.53;;;;;;;;;;4994179;28;93505;-65
2023/10/05 10:11:07;;;;;;;6.35;2.17;;;;;;;;;;4995111;28;92587;-65
2023/10/05 10:13:37;;;;;;;13.43;2.72;;;;;;;;;;4990563;28;95107;-65
2023/10/05 10:16:16;;;;;;;13.15;3.00;;;;;;;;;;4994652;28;93370;-65
2023/10/05 10:18:44;;;;;;;9.02;2.42;;;;;;;;;;4998445;28;92437;-65
2023/10/05 10:21:24;;;;;;;17.00;3.00;;;;;;;;;;4995356;28;93397;-65
2023/10/05 10:24:00;;;;;;;7.07;2.55;;;;;;;;;;4995663;28;92600;-65
2023/10/05 10:26:27;;;;;;;14.68;3.22;;;;;;;;;;4991600;28;93113;-65
2023/10/05 10:31:42;;;;;;;11.68;2.50;;;;;;;;;;4992753;28;91734;-65
2023/10/05 10:34:19;;;;;;;10.73;2.13;;;;;;;;;;4994852;28;93413;-65
2023/10/05 10:36:46;;;;;;;6.90;1.80;;;;;;;;;;4995123;28;93578;-65
2023/10/05 10:39:23;;;;;;;11.05;2.45;;;;;;;;;;4993571;28;94809;-65
2023/10/05 10:42:00;;;;;;;10.20;2.45;;;;;;;;;;4997376;28;96440;-65
2023/10/05 10:44:28;;;;;;;12.32;2.45;;;;;;;;;;4991205;28;92475;-65
2023/10/05 10:47:16;;;;;;;13.35;2.88;;;;;;;;;;4993331;28;93199;-65
2023/10/05 10:50:11;;;;;;;11.10;2.47;;;;;;;;;;4992593;28;92549;-65
2023/10/05 10:52:38;;;;;;;14.98;2.20;;;;;;;;;;4992244;28;92560;-65
2023/10/05 10:55:08;;;;;;;8.80;2.25;;;;;;;;;;4994056;28;92948;-65
2023/10/05 10:57:36;;;;;;;12.90;3.22;;;;;;;;;;4995113;28;93722;-65
2023/10/05 11:02:49;;;;;;;12.55;2.85;;;;;;;;;;4997542;28;93164;-65
2023/10/05 11:05:18;;;;;;;11.32;2.60;;;;;;;;;;4992711;28;95078;-65
2023/10/05 11:07:44;;;;;;;19.38;3.30;;;;;;;;;;4994585;28;95609;-65
2023/10/05 11:10:18;;;;;;;15.13;2.83;;;;;;;;;;4993743;28;92529;-65
2023/10/05 11:12:55;;;;;;;11.48;2.75;;;;;;;;;;4996189;28;92350;-66
2023/10/05 11:15:30;;;;;;;18.90;3.45;;;;;;;;;;4994153;28;94237;-66
2023/10/05 11:17:58;;;;;;;7.50;2.75;;;;;;;;;;4994745;28;94377;-66
2023/10/05 11:20:25;;;;;;;11.75;3.33;;;;;;;;;;4994691;28;92658;-66
2023/10/05 11:23:03;;;;;;;12.52;2.63;;;;;;;;;;4994851;28;94248;-66
2023/10/05 11:25:35;;;;;;;15.93;3.20;;;;;;;;;;4993374;28;93470;-66
2023/10/05 11:28:07;;;;;;;11.27;2.65;;;;;;;;;;4990680;28;93592;-65
2023/10/05 11:30:45;;;;;;;7.88;2.90;;;;;;;;;;4989679;28;94887;-65
2023/10/05 11:33:20;;;;;;;20.27;3.22;;;;;;;;;;4993275;28;92525;-65
2023/10/05 11:36:28;;;;;;;9.52;2.58;;;;;;;;;;4990097;28;93221;-66
2023/10/05 11:38:57;;;;;;;10.10;2.80;;;;;;;;;;4994432;28;94514;-65
2023/10/05 11:41:33;;;;;;;12.73;2.95;;;;;;;;;;4990438;28;92442;-66
2023/10/05 11:43:59;;;;;;;12.77;2.67;;;;;;;;;;4992977;28;93391;-66
2023/10/05 11:46:42;;;;;;;16.25;3.20;;;;;;;;;;4994063;28;93394;-65
2023/10/05 11:49:10;;;;;;;11.57;3.00;;;;;;;;;;4996131;28;91742;-65
2023/10/05 11:51:42;;;;;;;15.13;3.13;;;;;;;;;;4992898;28;93467;-65
2023/10/05 11:54:09;;;;;;;17.73;3.20;;;;;;;;;;4993439;28;92567;-65
2023/10/05 11:56:38;;;;;;;11.68;3.20;;;;;;;;;;4992835;28;95001;-66
2023/10/05 11:59:10;;;;;;;13.87;3.17;;;;;;;;;;4989623;28;93901;-65
2023/10/05 12:01:40;;;;;;;10.45;2.58;;;;;;;;;;4990855;28;92728;-65
2023/10/05 12:04:08;;;;;;;18.73;3.60;;;;;;;;;;4994033;28;93322;-65
2023/10/05 12:06:39;;;;;;;18.85;2.95;;;;;;;;;;4993132;28;93429;-65
2023/10/05 12:09:10;;;;;;;8.85;2.70;;;;;;;;;;4990752;28;93557;-65
2023/10/05 12:11:38;;;;;;;18.42;3.35;;;;;;;;;;4993387;28;93695;-65
2023/10/05 12:14:06;;;;;;;10.57;2.60;;;;;;;;;;4994070;28;91908;-65
2023/10/05 12:16:34;;;;;;;12.30;2.63;;;;;;;;;;4994277;28;92536;-66
2023/10/05 12:19:27;;;;;;;15.05;2.88;;;;;;;;;;4991724;28;94605;-66
2023/10/05 12:21:48;;;;;;;10.68;2.67;;;;;;;;;;4990226;28;94837;-66
2023/10/05 12:24:14;;;;;;;11.65;2.90;;;;;;;;;;4993259;28;95552;-66
2023/10/05 12:26:44;;;;;;;18.10;3.75;;;;;;;;;;4992752;28;93391;-66
2023/10/05 12:29:14;;;;;;;13.57;2.97;;;;;;;;;;4992566;28;92700;-66
2023/10/05 12:31:47;;;;;;;11.32;3.13;;;;;;;;;;4993043;28;93375;-63
2023/10/05 12:34:17;;;;;;;14.85;3.08;;;;;;;;;;4996261;28;93706;-63
2023/10/05 12:36:55;;;;;;;12.45;2.53;;;;;;;;;;4993325;28;94433;-64
2023/10/05 12:39:29;;;;;;;11.32;3.80;;;;;;;;;;4993534;28;93707;-64
2023/10/05 12:41:56;;;;;;;12.77;2.70;;;;;;;;;;4992818;28;92765;-63
2023/10/05 12:44:23;;;;;;;10.77;2.78;;;;;;;;;;4992143;28;93690;-64
2023/10/05 12:46:50;;;;;;;9.95;2.70;;;;;;;;;;4991725;28;95714;-67
2023/10/05 12:49:17;;;;;;;28.33;3.25;;;;;;;;;;4992618;28;92558;-63
2023/10/05 12:51:44;;;;;;;10.88;2.70;;;;;;;;;;4993470;28;93277;-63
2023/10/05 12:54:28;;;;;;;13.80;2.53;;;;;;;;;;4992889;28;94421;-63
2023/10/05 12:56:56;;;;;;;8.52;2.90;;;;;;;;;;4996426;28;92530;-64
2023/10/05 12:59:42;;;;;;;7.05;2.28;;;;;;;;;;4989349;28;93101;-63
2023/10/05 13:02:26;;;;;;;9.25;2.45;;;;;;;;;;4992028;28;92572;-63
2023/10/05 13:04:52;;;;;;;10.48;3.25;;;;;;;;;;4991113;28;93153;-63
2023/10/05 13:07:34;;;;;;;19.42;2.90;;;;;;;;;;4992925;28;94707;-63
2023/10/05 13:10:09;;;;;;;8.52;2.70;;;;;;;;;;4991658;28;92564;-63
2023/10/05 13:12:36;;;;;;;14.07;2.60;;;;;;;;;;4987301;28;94954;-63
2023/10/05 13:15:03;;;;;;;13.13;2.95;;;;;;;;;;4992021;28;93350;-63
2023/10/05 13:17:35;;;;;;;8.98;2.90;;;;;;;;;;4996034;28;92615;-63
2023/10/05 13:20:02;;;;;;;10.15;2.42;;;;;;;;;;4992316;28;92404;-62
2023/10/05 13:22:29;;;;;;;12.32;2.30;;;;;;;;;;4992238;28;92527;-62
2023/10/05 13:24:57;;;;;;;10.65;3.15;;;;;;;;;;4993161;28;93311;-63
2023/10/05 13:27:24;;;;;;;11.45;2.85;;;;;;;;;;4991932;28;92799;-63
2023/10/05 13:29:50;;;;;;;9.45;2.80;;;;;;;;;;4993409;28;91611;-63
2023/10/05 13:32:17;;;;;;;8.57;2.95;;;;;;;;;;4992900;28;93433;-63
2023/10/05 13:34:46;;;;;;;6.43;1.90;;;;;;;;;;4991872;28;93667;-63
2023/10/05 13:37:13;;;;;;;6.63;2.63;;;;;;;;;;4990565;28;94786;-63
2023/10/05 13:39:40;;;;;;;7.93;2.42;;;;;;;;;;4994774;28;95645;-63
2023/10/05 13:42:11;;;;;;;5.75;2.20;;;;;;;;;;4988602;28;92755;-65
2023/10/05 13:44:37;;;;;;;7.78;2.40;;;;;;;;;;4989019;28;93142;-65
2023/10/05 13:47:05;;;;;;;14.05;3.22;;;;;;;;;;4992498;28;93957;-65
2023/10/05 13:49:32;;;;;;;14.63;5.07;;;;;;;;;;4991355;28;92496;-66
2023/10/05 13:52:05;;;;;;;22.30;7.60;;;;;;;;;;4992785;28;93136;-65
2023/10/05 13:54:35;;;;;;;15.73;3.05;;;;;;;;;;4993082;28;91622;-65
2023/10/05 13:57:01;;;;;;;8.30;2.83;;;;;;;;;;4991687;28;92624;-66
2023/10/05 13:59:28;;;;;;;20.00;4.70;;;;;;;;;;4992761;28;93058;-65
2023/10/05 14:01:59;;;;;;;9.60;2.33;;;;;;;;;;4993316;28;96763;-65
2023/10/05 14:04:29;;;;;;;10.13;2.90;;;;;;;;;;4991593;28;95521;-65
2023/10/05 14:06:58;;;;;;;11.48;2.40;;;;;;;;;;4991198;28;93409;-66
2023/10/05 14:09:26;;;;;;;9.90;3.10;;;;;;;;;;4991966;28;92433;-66
2023/10/05 14:11:53;;;;;;;10.73;3.03;;;;;;;;;;4991975;28;94164;-66
2023/10/05 14:14:19;;;;;;;12.10;4.22;;;;;;;;;;4995192;28;94521;-66
2023/10/05 14:16:54;;;;;;;37.42;17.90;;;;;;;;;;4995281;28;92770;-65
2023/10/05 14:19:22;;;;;;;81.63;39.60;;;;;;;;;;4994954;28;94784;-65
2023/10/05 14:21:50;;;;;;;51.35;28.95;;;;;;;;;;4994710;28;94628;-65
2023/10/05 14:24:20;;;;;;;50.33;30.85;;;;;;;;;;4997715;28;92556;-65
2023/10/05 14:26:54;;;;;;;118.78;61.03;;;;;;;;;;4992304;28;96159;-66
2023/10/05 14:29:24;;;;;;;143.77;75.50;;;;;;;;;;4994314;28;92645;-65
2023/10/05 14:31:56;;;;;;;143.40;82.97;;;;;;;;;;4994493;28;93204;-65
2023/10/05 14:34:22;;;;;;;67.32;38.08;;;;;;;;;;4993558;28;93410;-66
2023/10/05 14:36:52;;;;;;;54.63;32.33;;;;;;;;;;4993635;28;92443;-66
2023/10/05 14:39:21;;;;;;;54.20;32.25;;;;;;;;;;4993363;28;93464;-66
2023/10/05 14:41:54;;;;;;;34.13;21.55;;;;;;;;;;4993133;28;93567;-66
2023/10/05 14:44:22;;;;;;;24.88;19.08;;;;;;;;;;4994680;28;91831;-66
2023/10/05 14:46:50;;;;;;;42.42;29.98;;;;;;;;;;4996986;28;92632;-66
2023/10/05 14:49:21;;;;;;;46.35;29.58;;;;;;;;;;4993987;28;92449;-67
2023/10/05 14:51:49;;;;;;;58.10;41.85;;;;;;;;;;4992283;28;95000;-64
2023/10/05 14:54:16;;;;;;;44.15;34.20;;;;;;;;;;4994060;28;93498;-61
2023/10/05 14:56:43;;;;;;;15.60;11.85;;;;;;;;;;4993525;28;92862;-61
2023/10/05 14:59:10;;;;;;;27.25;20.08;;;;;;;;;;4993518;28;93715;-61
2023/10/05 15:01:36;;;;;;;34.38;25.00;;;;;;;;;;4994012;28;93385;-61
2023/10/05 15:04:04;;;;;;;36.63;26.00;;;;;;;;;;4994013;28;92522;-61
2023/10/05 15:06:31;;;;;;;38.78;30.90;;;;;;;;;;4993535;28;93342;-61
2023/10/05 15:08:58;;;;;;;35.40;23.98;;;;;;;;;;4997037;28;92715;-61
2023/10/05 15:11:26;;;;;;;72.57;60.42;;;;;;;;;;4993515;28;92415;-61
2023/10/05 15:13:54;;;;;;;61.00;43.22;;;;;;;;;;4993642;28;94634;-61
2023/10/05 15:16:22;;;;;;;91.63;66.28;;;;;;;;;;4991634;28;95003;-61